RLDRICHLAND
METARs for airports near RLD, sorted by distance:
N 0 nm 394' KRLD 161055Z 26003KT 10SM CLR 05/05 A3011
E 8 nm 410' KPSC 161053Z 35003KT 10SM CLR 04/03 A3011
S 28 nm 644' KHRI 161053Z 16005KT 10SM CLR 06/03 A3012
SE 41 nm 1496' KPDT 161053Z 00000KT 10SM CLR 05/01 A3012
E 44 nm 1194' KALW 161053Z 10007KT 10SM CLR 09/01 A3011
W 53 nm 1098' KYKM 161053Z 27006KT 10SM CLR 01/01 A3011
N 54 nm 1188' KMWH 161052Z 00000KT 10SM CLR 04/03 A3011
N 60 nm 1276' KEPH 161053Z 35004KT 10SM CLR 06/03 A3010
NW 66 nm 1763' KELN 161053Z 06003KT 10SM CLR 02/M01 A3011
NW 75 nm 1248' KEAT 161055Z 29006KT 10SM CLR 08/03 A3010
SE 81 nm 2717' KLGD 161056Z 19018G27KT 10SM CLR 13/M03 A3019
SW 88 nm 246' KDLS 161053Z 00000KT 10SM CLR 08/06 A3014
E 94 nm 2566' KPUW 161053Z 06003KT 10SM CLR 07/01 A3017
E 94 nm 1442' KLWS 161056Z 00000KT 10SM CLR 09/01 A3015
TAFs for airports near RLD, sorted by distance:
E 8 nm 410' KPSC KPSC 160525Z 1606/1706 VRB04KT P6SM SCT200
SE 41 nm 1496' KPDT KPDT 160525Z 1606/1706 13006KT P6SM SCT200
  FM161800 31006KT P6SM SKC
  FM170000 05003KT P6SM SKC
E 44 nm 1194' KALW KALW 160525Z 1606/1706 14007KT P6SM SCT200
  FM161800 24005KT P6SM BKN250
  FM170000 16004KT P6SM FEW250
W 53 nm 1098' KYKM KYKM 160525Z 1606/1706 29006KT P6SM FEW150 BKN200
  FM160900 VRB03KT P6SM FEW250
N 54 nm 1188' KMWH TAF KMWH 160520Z 1606/1706 VRB04KT P6SM SCT100 BKN200
  FM160900 VRB04KT P6SM SCT100 SCT250
  FM161800 17006KT P6SM SCT250
  FM170300 VRB03KT P6SM FEW150 SCT250
NW 75 nm 1248' KEAT TAF KEAT 160520Z 1606/1706 30004KT P6SM SCT100 BKN200
  FM160800 31004KT P6SM SCT100 SCT250
  FM161800 VRB04KT P6SM SCT250
  FM170300 VRB02KT P6SM SCT120 BKN250
SW 88 nm 246' KDLS KDLS 160525Z 1606/1706 23005KT P6SM SCT200
  FM161800 33005KT P6SM SKC
E 94 nm 2566' KPUW TAF KPUW 160520Z 1606/1706 11007KT P6SM SCT070 BKN120
  FM161000 10006KT P6SM SCT090
  FM161600 12011KT P6SM SCT250
E 94 nm 1442' KLWS TAF KLWS 160520Z 1606/1706 12007KT P6SM SCT100 BKN150
  FM161000 10006KT P6SM SCT090
  FM161600 10006KT P6SM SCT250

Shortcut to this page: http://wxbay.com.

Data may contain errors.